Motte Rimrock Reserve, California Weather observations

Data are for 10 minute period ending at time listed.
 Day   Time   Solar   Ave.   Ave.  Ave.  Vector  Max.   Baro.   Total    
  of    of     Rad.   Air    Rel.  Wind   Wind   Wind  Press.  Precip.   
Year   Day            Temp.  Hum.  Speed  Dir.   Gust                    
2016   (PST)  Kw/m2    F      %     mph   deg.    mph    mb.     in.     
-------------------------------------------------------------------------
  39   22:10   0.00   65.6    15   10.9     5    14.4   954.3    0.00 
  39   22:20   0.00   65.6    15   12.3     5    16.3   954.4    0.00 
  39   22:30   0.00   65.7    15   10.9     2    13.9   954.5    0.00 
  39   22:40   0.00   65.5    15    9.5     3    13.1   954.6    0.00 
  39   22:50   0.00   66.3    14    9.8    15    16.1   954.6    0.00 
  39   23:00   0.00   66.4    15    8.9    22    13.2   954.6    0.00 
  39   23:10   0.00   66.6    14    8.2    30    12.2   954.5    0.00 
  39   23:20   0.00   66.0    15    8.7    20    12.6   954.5    0.00 
  39   23:30   0.00   65.6    15   11.3    12    16.4   954.4    0.00 
  39   23:40   0.00   65.9    15   10.4     6    13.4   954.3    0.00 
  39   23:50   0.00   67.1    14    9.9     6    14.2   954.2    0.00 
  40    0:00   0.00   65.7    15    7.5   360    13.8   954.2    0.00 
  40    0:10   0.00   62.6    17   12.7   336    16.7   954.0    0.00 
  40    0:20   0.00   62.3    18    9.9   340    13.8   953.9    0.00 
  40    0:30   0.00   62.3    18    6.8   342    10.4   953.8    0.00 
  40    0:40   0.00   63.8    16    7.0     6    10.7   953.6    0.00 
  40    0:50   0.00   66.1    14    7.5     8    11.1   953.6    0.00 
  40    1:00   0.00   64.7    16    8.6     1    11.2   953.6    0.00 
  40    1:10   0.00   63.7    17    9.4   358    11.5   953.8    0.00 
  40    1:20   0.00   62.3    18    8.1   348    10.8   953.8    0.00 
  40    1:30   0.00   62.3    18    8.7   339    10.8   953.8    0.00 
  40    1:40   0.00   60.8    19    8.8   332    10.7   953.8    0.00 
  40    1:50   0.00   63.0    17    9.1   339    10.9   953.7    0.00 
  40    2:00   0.00   62.5    17    8.9   330    10.7   953.8    0.00 
  40    2:10   0.00   60.5    19   10.3   331    12.1   953.7    0.00 
  40    2:20   0.00   60.8    18    7.5   331     9.9   953.7    0.00 
  40    2:30   0.00   60.6    19    7.9   320     9.3   953.6    0.00 
  40    2:40   0.00   62.5    17    7.7   341     9.9   953.5    0.00 
  40    2:50   0.00   65.9    14    7.4    21    10.4   953.5    0.00 
  40    3:00   0.00   65.6    15    6.9     8    11.2   953.6    0.00 
  40    3:10   0.00   62.9    17    8.1   338    10.4   953.6    0.00 
  40    3:20   0.00   61.6    18   11.4   333    15.0   953.6    0.00 
  40    3:30   0.00   61.4    19   11.5   323    13.5   953.4    0.00 
  40    3:40   0.00   60.8    20   12.6   324    14.8   953.4    0.00 
  40    3:50   0.00   59.4    22   12.1   327    14.1   953.4    0.00 
  40    4:00   0.00   59.3    21    9.7   333    12.6   953.4    0.00 
  40    4:10   0.00   61.4    19    9.6   342    11.2   953.4    0.00 
  40    4:20   0.00   62.4    18    9.6   353    12.5   953.4    0.00 
  40    4:30   0.00   64.5    16   10.1     4    12.9   953.5    0.00 
  40    4:40   0.00   65.5    15    9.3    11    14.0   953.6    0.00 
  40    4:50   0.00   64.9    16    8.9    16    13.1   953.7    0.00 
  40    5:00   0.00   64.8    16    8.7    21    13.9   953.9    0.00 
  40    5:10   0.00   65.4    16    8.0    23    13.9   953.9    0.00 
  40    5:20   0.00   65.2    16    9.3    14    13.4   954.0    0.00 
  40    5:30   0.00   62.6    18   10.3     4    12.5   954.0    0.00 
  40    5:40   0.00   61.4    19   11.0   352    14.8   953.9    0.00 
  40    5:50   0.00   61.2    19    9.8   343    12.3   953.9    0.00 
  40    6:00   0.00   61.8    18    9.5   341    13.2   953.9    0.00 
  40    6:10   0.00   63.0    18    8.6     3    14.6   953.9    0.00 
  40    6:20   0.00   64.6    17   10.3    24    13.5   954.0    0.00 
  40    6:30   0.00   63.9    18    9.3    30    13.0   954.1    0.00 
  40    6:40   0.00   63.2    19    9.3    23    15.4   954.2    0.00 
  40    6:50   0.00   61.9    20    8.4     1    12.5   954.2    0.00 
  40    7:00   0.02   62.0    19    9.1   345    12.1   954.3    0.00 
  40    7:10   0.05   60.1    21    9.4   334    13.2   954.4    0.00 
  40    7:20   0.08   62.1    19   11.2   338    13.5   954.5    0.00 
  40    7:30   0.11   64.5    18   11.4   357    15.2   954.5    0.00 
  40    7:40   0.15   66.3    16   10.8     3    14.8   954.6    0.00 
  40    7:50   0.18   66.5    16    9.5     7    14.8   954.6    0.00 
  40    8:00   0.22   67.7    16    9.5    17    14.5   954.8    0.00 
  40    8:10   0.25   68.3    16    9.5    21    14.2   955.1    0.00 
  40    8:20   0.28   68.6    16    9.8    31    17.2   955.2    0.00 
  40    8:30   0.32   69.5    16    9.5    42    14.9   955.3    0.00 
  40    8:40   0.35   70.2    16    9.2    32    13.4   955.4    0.00 
  40    8:50   0.39   70.4    15    8.9    19    13.3   955.4    0.00 
  40    9:00   0.42   70.8    15    9.3    16    14.2   955.4    0.00 
  40    9:10   0.45   70.7    16    9.5     5    14.2   955.3    0.00 
  40    9:20   0.48   71.0    16    9.0     7    13.3   955.4    0.00 
  40    9:30   0.50   72.0    15   10.0    14    16.8   955.4    0.00 
  40    9:40   0.53   73.5    14   11.4    38    16.9   955.4    0.00 
  40    9:50   0.56   74.2    15   10.3    46    15.3   955.4    0.00 
  40   10:00   0.58   74.6    14   10.4    53    15.0   955.4    0.00 
  40   10:10   0.60   75.6    14    8.3    50    13.4   955.3    0.00 
  40   10:20   0.62   76.6    13   10.3    39    17.1   955.2    0.00 
  40   10:30   0.64   77.2    12   12.4    41    18.6   955.1    0.00 
  40   10:40   0.66   77.8    12   10.8    36    14.9   955.0    0.00 
  40   10:50   0.67   78.2    12   10.9    43    17.8   955.0    0.00 
  40   11:00   0.69   78.9    12   11.1    47    20.1   954.9    0.00 
  40   11:10   0.70   79.4    11   13.0    53    21.1   954.7    0.00 
  40   11:20   0.71   79.4    11   16.1    50    24.8   954.4    0.00 
  40   11:30   0.72   79.6    11   14.2    43    23.1   954.3    0.00 
  40   11:40   0.73   80.2    11   13.9    49    20.3   954.2    0.00 
  40   11:50   0.73   79.6    12   12.2     3    18.7   954.0    0.00 
  40   12:00   0.73   79.2    12    9.8     2    18.2   953.9    0.00 
  40   12:10   0.73   79.7    12    8.1   359    11.4   953.7    0.00 
  40   12:20   0.73   79.9    12    7.5     6    15.4   953.4    0.00 
  40   12:30   0.73   80.5    12    7.6   354    11.2   953.1    0.00 
  40   12:40   0.72   80.4    12    5.6     4    11.1   953.0    0.00 
  40   12:50   0.71   80.5    12    6.3   332    11.5   952.9    0.00 
  40   13:00   0.70   81.1    12    5.0     1     8.8   952.8    0.00 
  40   13:10   0.69   80.8    12    5.4   330     9.4   952.6    0.00 
  40   13:20   0.68   80.7    12    6.9   313    11.5   952.5    0.00 
  40   13:30   0.67   81.9    12    4.5   341     8.0   952.4    0.00 
  40   13:40   0.65   81.7    11    5.0   346     8.8   952.3    0.00 
  40   13:50   0.63   81.9    11    5.2   341     9.6   952.1    0.00 
  40   14:00   0.61   81.8    12    7.1   351    10.2   952.0    0.00 
  40   14:10   0.59   82.1    11    6.1    10    10.5   951.9    0.00 
  40   14:20   0.55   82.8    11    4.9     5     8.0   951.8    0.00 
  40   14:30   0.55   82.6    10    6.6    41    12.1   951.8    0.00 
  40   14:40   0.52   82.8    10    7.3    55    12.1   951.7    0.00 
  40   14:50   0.50   82.6    10    7.0    46    14.8   951.7    0.00 
  40   15:00   0.47   82.4    10    9.0    43    14.3   951.6    0.00 
  40   15:10   0.44   82.2    10    9.2    54    13.6   951.7    0.00 
  40   15:20   0.41   82.0    10    9.1    49    13.5   951.7    0.00 
  40   15:30   0.38   82.0    10    7.1    50    12.7   951.7    0.00 
  40   15:40   0.35   81.7    10    8.8    55    12.2   951.7    0.00 
  40   15:50   0.31   81.1    11    8.1    45    12.0   951.8    0.00 
  40   16:00   0.28   80.9    11    7.4    42    11.8   951.8    0.00 
  40   16:10   0.24   80.5    11    7.2    42    11.7   951.9    0.00 
  40   16:20   0.21   80.2    11    7.4    41    11.4   952.0    0.00 
  40   16:30   0.18   79.7    11    6.0    41    11.8   952.1    0.00 
  40   16:40   0.14   79.1    11    6.7    41    11.5   952.3    0.00 
  40   16:50   0.11   78.5    11    6.3    38    10.6   952.3    0.00 
  40   17:00   0.08   77.9    11    6.3    30    10.4   952.4    0.00 
  40   17:10   0.05   76.8    12    7.9   352    12.3   952.6    0.00 
  40   17:20   0.02   75.8    13    7.5   354    11.3   952.7    0.00 
  40   17:30   0.01   74.7    14    7.8   344    10.6   952.9    0.00 
  40   17:40   0.01   73.0    15    7.7   344    10.0   953.0    0.00 
  40   17:50   0.01   73.3    14    8.2   359    10.7   953.1    0.00 
  40   18:00   0.00   72.3    15    7.9   344    10.2   953.2    0.00 
  40   18:10   0.00   72.0    15    9.2   344    11.8   953.3    0.00 
  40   18:20   0.00   71.8    15    8.2   342    10.4   953.4    0.00 
  40   18:30   0.00   71.1    15    7.8   348     9.5   953.4    0.00 
  40   18:40   0.00   71.4    15    6.5   353     8.2   953.4    0.00 
  40   18:50   0.00   71.9    14    7.0     5     9.0   953.3    0.00 
  40   19:00   0.00   71.9    14    7.4   359     9.5   953.2    0.00 
  40   19:10   0.00   70.7    15    7.0   357     8.9   953.2    0.00 
  40   19:20   0.00   70.4    15    6.2   352     8.0   953.2    0.00 
  40   19:30   0.00   70.8    14    6.5     9     9.3   953.1    0.00 
  40   19:40   0.00   71.9    13    7.3    20    10.7   953.0    0.00 
  40   19:50   0.00   71.6    13    7.3    26    10.9   952.8    0.00 
  40   20:00   0.00   70.8    13    5.9    36    10.5   952.8    0.00 
  40   20:10   0.00   69.9    14    5.7    40     9.2   952.8    0.00 
  40   20:20   0.00   69.8    14    7.2    44    11.2   952.9    0.00 
  40   20:30   0.00   69.5    14    7.6    33    10.4   952.9    0.00 
  40   20:40   0.00   69.7    14    7.8    19    10.2   952.9    0.00 
  40   20:50   0.00   69.5    14    8.8    10    11.1   952.9    0.00 
  40   21:00   0.00   69.7    14    9.0    12    11.0   952.9    0.00 
  40   21:10   0.00   69.7    14    9.5    12    11.8   953.0    0.00 
  40   21:20   0.00   69.7    13    8.3    13    10.7   953.1    0.00 
  40   21:30   0.00   69.5    13    8.7    14    10.5   953.2    0.00 
  40   21:40   0.00   69.4    13    9.1    14    12.0   953.4    0.00 
  40   21:50   0.00   69.5    13    8.6    16    11.8   953.5    0.00 
  40   22:00   0.00   68.9    13    8.2     4    10.4   953.7    0.00 

Return to Motte Rimrock Reserve graphs page.


Western Regional Climate Center,wrcc@dri.edu